sensor_id;sensor_type;location;lat;lon;timestamp;pressure;altitude;pressure_sealevel;temperature;humidity
43312;BME280;30041;48.300;16.352;2024-01-15T00:01:44;98405.03;;;21.52;39.65
43312;BME280;30041;48.300;16.352;2024-01-15T00:04:10;98404.22;;;21.52;39.48
43312;BME280;30041;48.300;16.352;2024-01-15T00:06:35;98400.16;;;21.49;39.50
43312;BME280;30041;48.300;16.352;2024-01-15T00:09:02;98398.00;;;21.51;39.46
43312;BME280;30041;48.300;16.352;2024-01-15T00:11:28;98383.19;;;21.49;39.49
43312;BME280;30041;48.300;16.352;2024-01-15T00:13:56;98389.69;;;21.48;39.34
43312;BME280;30041;48.300;16.352;2024-01-15T00:16:24;98388.03;;;21.47;39.55
43312;BME280;30041;48.300;16.352;2024-01-15T00:18:50;98373.75;;;21.46;39.39
43312;BME280;30041;48.300;16.352;2024-01-15T00:21:18;98377.81;;;21.44;39.44
43312;BME280;30041;48.300;16.352;2024-01-15T00:23:44;98374.28;;;21.43;39.44
43312;BME280;30041;48.300;16.352;2024-01-15T00:26:11;98378.59;;;21.44;39.43
43312;BME280;30041;48.300;16.352;2024-01-15T00:28:37;98368.09;;;21.43;39.26
43312;BME280;30041;48.300;16.352;2024-01-15T00:31:04;98360.28;;;21.41;39.44
43312;BME280;30041;48.300;16.352;2024-01-15T00:33:35;98357.81;;;21.40;39.53
43312;BME280;30041;48.300;16.352;2024-01-15T00:36:01;98358.88;;;21.39;39.33
43312;BME280;30041;48.300;16.352;2024-01-15T00:38:31;98364.56;;;21.37;39.46
43312;BME280;30041;48.300;16.352;2024-01-15T00:40:56;98372.63;;;21.37;39.35
43312;BME280;30041;48.300;16.352;2024-01-15T00:43:22;98374.50;;;21.36;39.58
43312;BME280;30041;48.300;16.352;2024-01-15T00:45:48;98370.19;;;21.35;39.42
43312;BME280;30041;48.300;16.352;2024-01-15T00:48:16;98370.47;;;21.34;39.45
43312;BME280;30041;48.300;16.352;2024-01-15T00:50:42;98368.84;;;21.33;39.22
43312;BME280;30041;48.300;16.352;2024-01-15T00:53:08;98366.41;;;21.31;39.35
43312;BME280;30041;48.300;16.352;2024-01-15T00:55:34;98357.53;;;21.31;39.44
43312;BME280;30041;48.300;16.352;2024-01-15T00:57:59;98354.03;;;21.30;39.26
43312;BME280;30041;48.300;16.352;2024-01-15T01:00:25;98350.78;;;21.28;39.16
43312;BME280;30041;48.300;16.352;2024-01-15T01:02:51;98345.94;;;21.30;39.16
43312;BME280;30041;48.300;16.352;2024-01-15T01:05:17;98337.31;;;21.28;38.98
43312;BME280;30041;48.300;16.352;2024-01-15T01:07:43;98338.38;;;21.27;39.32
43312;BME280;30041;48.300;16.352;2024-01-15T01:10:11;98340.28;;;21.27;39.39
43312;BME280;30041;48.300;16.352;2024-01-15T01:12:39;98354.56;;;21.27;39.22
43312;BME280;30041;48.300;16.352;2024-01-15T01:15:05;98354.00;;;21.25;39.13
43312;BME280;30041;48.300;16.352;2024-01-15T01:17:31;98352.66;;;21.23;39.03
43312;BME280;30041;48.300;16.352;2024-01-15T01:19:57;98355.63;;;21.21;39.30
43312;BME280;30041;48.300;16.352;2024-01-15T01:22:23;98350.25;;;21.21;39.21
43312;BME280;30041;48.300;16.352;2024-01-15T01:24:48;98336.78;;;21.21;39.14
43312;BME280;30041;48.300;16.352;2024-01-15T01:27:14;98335.16;;;21.20;39.21
43312;BME280;30041;48.300;16.352;2024-01-15T01:29:40;98337.03;;;21.20;39.03
43312;BME280;30041;48.300;16.352;2024-01-15T01:32:06;98324.63;;;21.19;39.24
43312;BME280;30041;48.300;16.352;2024-01-15T01:34:32;98334.06;;;21.16;39.12
43312;BME280;30041;48.300;16.352;2024-01-15T01:36:58;98320.03;;;21.14;39.20
43312;BME280;30041;48.300;16.352;2024-01-15T01:39:27;98321.94;;;21.13;39.19
43312;BME280;30041;48.300;16.352;2024-01-15T01:41:52;98312.50;;;21.16;39.25
43312;BME280;30041;48.300;16.352;2024-01-15T01:44:24;98301.19;;;21.14;39.01
43312;BME280;30041;48.300;16.352;2024-01-15T01:46:49;98299.56;;;21.13;38.96
43312;BME280;30041;48.300;16.352;2024-01-15T01:49:15;98288.25;;;21.11;39.25
43312;BME280;30041;48.300;16.352;2024-01-15T01:51:42;98283.13;;;21.09;39.05
43312;BME280;30041;48.300;16.352;2024-01-15T01:54:08;98285.81;;;21.09;39.06
43312;BME280;30041;48.300;16.352;2024-01-15T01:56:34;98286.91;;;21.08;39.06
43312;BME280;30041;48.300;16.352;2024-01-15T01:59:04;98276.94;;;21.09;38.89
43312;BME280;30041;48.300;16.352;2024-01-15T02:01:31;98275.34;;;21.08;39.15
43312;BME280;30041;48.300;16.352;2024-01-15T02:03:57;98276.41;;;21.07;39.11
43312;BME280;30041;48.300;16.352;2024-01-15T02:06:24;98258.63;;;21.06;38.91
43312;BME280;30041;48.300;16.352;2024-01-15T02:08:50;98253.50;;;21.04;39.13
43312;BME280;30041;48.300;16.352;2024-01-15T02:11:16;98250.81;;;21.04;39.23
43312;BME280;30041;48.300;16.352;2024-01-15T02:13:42;98263.47;;;21.04;39.06
43312;BME280;30041;48.300;16.352;2024-01-15T02:16:08;98268.84;;;21.04;39.08
43312;BME280;30041;48.300;16.352;2024-01-15T02:18:44;98264.28;;;21.04;39.09
43312;BME280;30041;48.300;16.352;2024-01-15T02:21:10;98268.56;;;21.00;39.15
43312;BME280;30041;48.300;16.352;2024-01-15T02:23:36;98275.31;;;20.98;39.00
43312;BME280;30041;48.300;16.352;2024-01-15T02:26:02;98254.56;;;20.98;39.00
43312;BME280;30041;48.300;16.352;2024-01-15T02:28:32;98254.84;;;20.97;38.99
43312;BME280;30041;48.300;16.352;2024-01-15T02:30:58;98251.63;;;20.94;39.11
43312;BME280;30041;48.300;16.352;2024-01-15T02:33:24;98242.69;;;20.94;38.83
43312;BME280;30041;48.300;16.352;2024-01-15T02:35:50;98249.72;;;20.95;39.08
43312;BME280;30041;48.300;16.352;2024-01-15T02:38:18;98240.84;;;20.94;38.82
43312;BME280;30041;48.300;16.352;2024-01-15T02:40:45;98249.72;;;20.95;38.92
43312;BME280;30041;48.300;16.352;2024-01-15T02:43:13;98238.16;;;20.94;38.76
43312;BME280;30041;48.300;16.352;2024-01-15T02:45:41;98243.53;;;20.94;38.93
43312;BME280;30041;48.300;16.352;2024-01-15T02:48:07;98240.31;;;20.92;38.79
43312;BME280;30041;48.300;16.352;2024-01-15T02:50:33;98244.03;;;20.91;39.01
43312;BME280;30041;48.300;16.352;2024-01-15T02:52:59;98247.03;;;20.90;39.04
43312;BME280;30041;48.300;16.352;2024-01-15T02:55:25;98248.88;;;20.89;38.98
43312;BME280;30041;48.300;16.352;2024-01-15T02:57:51;98257.25;;;20.88;38.83
43312;BME280;30041;48.300;16.352;2024-01-15T03:00:26;98252.13;;;20.86;39.05
43312;BME280;30041;48.300;16.352;2024-01-15T03:02:52;98256.44;;;20.87;39.03
43312;BME280;30041;48.300;16.352;2024-01-15T03:05:18;98255.06;;;20.85;38.93
43312;BME280;30041;48.300;16.352;2024-01-15T03:07:44;98265.06;;;20.84;38.98
43312;BME280;30041;48.300;16.352;2024-01-15T03:10:10;98259.66;;;20.84;38.83
43312;BME280;30041;48.300;16.352;2024-01-15T03:12:38;98258.06;;;20.83;39.01
43312;BME280;30041;48.300;16.352;2024-01-15T03:15:05;98257.50;;;20.81;39.07
43312;BME280;30041;48.300;16.352;2024-01-15T03:17:31;98269.34;;;20.80;39.09
43312;BME280;30041;48.300;16.352;2024-01-15T03:19:57;98260.22;;;20.81;38.92
43312;BME280;30041;48.300;16.352;2024-01-15T03:22:22;98273.13;;;20.79;38.95
43312;BME280;30041;48.300;16.352;2024-01-15T03:24:48;98291.97;;;20.79;38.83
43312;BME280;30041;48.300;16.352;2024-01-15T03:27:14;98294.66;;;20.79;38.70
43312;BME280;30041;48.300;16.352;2024-01-15T03:29:41;98289.28;;;20.79;38.69
43312;BME280;30041;48.300;16.352;2024-01-15T03:32:06;98286.84;;;20.78;38.89
43312;BME280;30041;48.300;16.352;2024-01-15T03:34:32;98283.09;;;20.79;39.01
43312;BME280;30041;48.300;16.352;2024-01-15T03:37:06;98285.25;;;20.77;38.71
43312;BME280;30041;48.300;16.352;2024-01-15T03:39:31;98290.63;;;20.77;38.67
43312;BME280;30041;48.300;16.352;2024-01-15T03:42:00;98288.72;;;20.77;38.82
43312;BME280;30041;48.300;16.352;2024-01-15T03:44:36;98286.28;;;20.76;38.64
43312;BME280;30041;48.300;16.352;2024-01-15T03:47:02;98279.56;;;20.73;38.70
43312;BME280;30041;48.300;16.352;2024-01-15T03:49:28;98275.78;;;20.74;38.64
43312;BME280;30041;48.300;16.352;2024-01-15T03:51:54;98285.75;;;20.73;38.72
43312;BME280;30041;48.300;16.352;2024-01-15T03:54:22;98276.06;;;20.72;38.83
43312;BME280;30041;48.300;16.352;2024-01-15T03:56:51;98269.34;;;20.70;38.80
43312;BME280;30041;48.300;16.352;2024-01-15T03:59:20;98264.75;;;20.70;38.63
43312;BME280;30041;48.300;16.352;2024-01-15T04:01:52;98262.31;;;20.69;38.75
43312;BME280;30041;48.300;16.352;2024-01-15T04:04:18;98265.28;;;20.67;38.81
43312;BME280;30041;48.300;16.352;2024-01-15T04:06:44;98262.84;;;20.66;38.69
43312;BME280;30041;48.300;16.352;2024-01-15T04:09:12;98255.59;;;20.66;38.72
43312;BME280;30041;48.300;16.352;2024-01-15T04:11:40;98251.84;;;20.67;38.73
43312;BME280;30041;48.300;16.352;2024-01-15T04:14:08;98258.81;;;20.68;38.73
43312;BME280;30041;48.300;16.352;2024-01-15T04:16:34;98253.69;;;20.67;38.66
43312;BME280;30041;48.300;16.352;2024-01-15T04:19:00;98252.91;;;20.66;38.77
43312;BME280;30041;48.300;16.352;2024-01-15T04:21:38;98238.63;;;20.66;38.83
43312;BME280;30041;48.300;16.352;2024-01-15T04:24:06;98216.00;;;20.67;38.76
43312;BME280;30041;48.300;16.352;2024-01-15T04:26:34;98247.81;;;20.70;38.81
43312;BME280;30041;48.300;16.352;2024-01-15T04:29:03;98258.28;;;20.71;38.77
43312;BME280;30041;48.300;16.352;2024-01-15T04:31:32;98235.69;;;20.72;38.78
43312;BME280;30041;48.300;16.352;2024-01-15T04:34:02;98255.88;;;20.75;38.79
43312;BME280;30041;48.300;16.352;2024-01-15T04:36:30;98260.19;;;20.76;38.61
43312;BME280;30041;48.300;16.352;2024-01-15T04:38:56;98246.72;;;20.76;38.51
43312;BME280;30041;48.300;16.352;2024-01-15T04:41:22;98237.56;;;20.77;38.67
43312;BME280;30041;48.300;16.352;2024-01-15T04:43:53;98251.59;;;20.79;38.45
43312;BME280;30041;48.300;16.352;2024-01-15T04:46:22;98249.69;;;20.80;38.81
43312;BME280;30041;48.300;16.352;2024-01-15T04:48:55;98256.72;;;20.86;38.85
43312;BME280;30041;48.300;16.352;2024-01-15T04:51:21;98249.16;;;20.83;38.04
43312;BME280;30041;48.300;16.352;2024-01-15T04:53:58;98257.78;;;20.80;37.91
43312;BME280;30041;48.300;16.352;2024-01-15T04:56:26;98256.97;;;20.84;38.22
43312;BME280;30041;48.300;16.352;2024-01-15T04:58:52;98238.66;;;20.91;37.69
43312;BME280;30041;48.300;16.352;2024-01-15T05:01:23;98241.38;;;21.07;37.36
43312;BME280;30041;48.300;16.352;2024-01-15T05:03:53;98255.41;;;21.19;37.60
43312;BME280;30041;48.300;16.352;2024-01-15T05:06:19;98251.34;;;21.27;37.42
43312;BME280;30041;48.300;16.352;2024-01-15T05:08:45;98269.94;;;21.33;37.17
43312;BME280;30041;48.300;16.352;2024-01-15T05:11:13;98259.44;;;21.37;37.37
43312;BME280;30041;48.300;16.352;2024-01-15T05:13:39;98264.28;;;21.40;36.96
43312;BME280;30041;48.300;16.352;2024-01-15T05:16:05;98279.13;;;21.43;37.21
43312;BME280;30041;48.300;16.352;2024-01-15T05:18:40;98284.53;;;21.48;37.34
43312;BME280;30041;48.300;16.352;2024-01-15T05:21:08;98278.88;;;21.49;37.36
43312;BME280;30041;48.300;16.352;2024-01-15T05:23:34;98271.06;;;21.53;37.32
43312;BME280;30041;48.300;16.352;2024-01-15T05:26:03;98273.50;;;21.54;37.31
43312;BME280;30041;48.300;16.352;2024-01-15T05:28:29;98262.16;;;21.58;37.31
43312;BME280;30041;48.300;16.352;2024-01-15T05:30:54;98263.50;;;21.60;37.46
43312;BME280;30041;48.300;16.352;2024-01-15T05:33:23;98264.84;;;21.63;37.31
43312;BME280;30041;48.300;16.352;2024-01-15T05:35:49;98268.88;;;21.65;37.30
43312;BME280;30041;48.300;16.352;2024-01-15T05:38:15;98266.19;;;21.65;37.16
43312;BME280;30041;48.300;16.352;2024-01-15T05:40:41;98281.00;;;21.68;37.19
43312;BME280;30041;48.300;16.352;2024-01-15T05:43:07;98275.34;;;21.69;37.03
43312;BME280;30041;48.300;16.352;2024-01-15T05:45:34;98282.38;;;21.70;37.16
43312;BME280;30041;48.300;16.352;2024-01-15T05:48:00;98283.97;;;21.71;37.36
43312;BME280;30041;48.300;16.352;2024-01-15T05:50:26;98297.44;;;21.76;37.38
43312;BME280;30041;48.300;16.352;2024-01-15T05:52:51;98286.66;;;21.76;37.44
43312;BME280;30041;48.300;16.352;2024-01-15T05:55:17;98295.56;;;21.77;37.31
43312;BME280;30041;48.300;16.352;2024-01-15T05:57:43;98303.91;;;21.81;37.52
43312;BME280;30041;48.300;16.352;2024-01-15T06:00:09;98303.66;;;21.82;37.20
43312;BME280;30041;48.300;16.352;2024-01-15T06:02:39;98300.94;;;21.82;37.10
43312;BME280;30041;48.300;16.352;2024-01-15T06:05:08;98300.41;;;21.85;37.11
43312;BME280;30041;48.300;16.352;2024-01-15T06:07:36;98299.34;;;21.86;37.10
43312;BME280;30041;48.300;16.352;2024-01-15T06:10:05;98312.25;;;21.89;37.15
43312;BME280;30041;48.300;16.352;2024-01-15T06:12:31;98300.91;;;21.92;36.92
43312;BME280;30041;48.300;16.352;2024-01-15T06:15:00;98297.16;;;21.93;37.02
43312;BME280;30041;48.300;16.352;2024-01-15T06:17:26;98291.50;;;21.95;37.02
43312;BME280;30041;48.300;16.352;2024-01-15T06:19:52;98287.72;;;21.96;36.90
43312;BME280;30041;48.300;16.352;2024-01-15T06:22:26;98285.53;;;21.98;36.51
43312;BME280;30041;48.300;16.352;2024-01-15T06:24:52;98282.59;;;22.00;36.54
43312;BME280;30041;48.300;16.352;2024-01-15T06:27:18;98283.13;;;22.02;36.49
43312;BME280;30041;48.300;16.352;2024-01-15T06:29:49;98287.97;;;22.05;36.50
43312;BME280;30041;48.300;16.352;2024-01-15T06:32:17;98284.47;;;22.04;36.31
43312;BME280;30041;48.300;16.352;2024-01-15T06:34:43;98297.66;;;22.06;35.85
43312;BME280;30041;48.300;16.352;2024-01-15T06:37:09;98307.91;;;22.09;35.52
43312;BME280;30041;48.300;16.352;2024-01-15T06:39:38;98304.94;;;22.05;35.59
43312;BME280;30041;48.300;16.352;2024-01-15T06:42:04;98301.44;;;22.10;35.45
43312;BME280;30041;48.300;16.352;2024-01-15T06:44:32;98309.53;;;22.10;35.77
43312;BME280;30041;48.300;16.352;2024-01-15T06:46:58;98314.94;;;21.94;37.54
43312;BME280;30041;48.300;16.352;2024-01-15T06:49:27;98323.06;;;21.69;37.75
43312;BME280;30041;48.300;16.352;2024-01-15T06:51:53;98326.06;;;21.57;38.06
43312;BME280;30041;48.300;16.352;2024-01-15T06:54:18;98327.38;;;21.49;38.20
43312;BME280;30041;48.300;16.352;2024-01-15T06:56:47;98330.09;;;21.49;38.13
43312;BME280;30041;48.300;16.352;2024-01-15T06:59:12;98341.97;;;21.48;38.32
43312;BME280;30041;48.300;16.352;2024-01-15T07:01:38;98342.22;;;21.52;38.11
43312;BME280;30041;48.300;16.352;2024-01-15T07:04:06;98338.72;;;21.51;38.06
43312;BME280;30041;48.300;16.352;2024-01-15T07:06:35;98341.66;;;21.40;36.76
43312;BME280;30041;48.300;16.352;2024-01-15T07:09:01;98340.31;;;21.37;37.17
43312;BME280;30041;48.300;16.352;2024-01-15T07:11:29;98347.56;;;21.26;36.63
43312;BME280;30041;48.300;16.352;2024-01-15T07:13:58;98350.25;;;21.26;37.06
43312;BME280;30041;48.300;16.352;2024-01-15T07:16:23;98347.28;;;21.33;37.01
43312;BME280;30041;48.300;16.352;2024-01-15T07:18:49;98345.41;;;21.39;37.36
43312;BME280;30041;48.300;16.352;2024-01-15T07:21:15;98332.25;;;21.42;37.60
43312;BME280;30041;48.300;16.352;2024-01-15T07:23:41;98338.19;;;21.44;37.75
43312;BME280;30041;48.300;16.352;2024-01-15T07:26:06;98343.56;;;21.49;37.92
43312;BME280;30041;48.300;16.352;2024-01-15T07:28:32;98343.28;;;21.51;38.03
43312;BME280;30041;48.300;16.352;2024-01-15T07:31:00;98345.75;;;21.52;38.16
43312;BME280;30041;48.300;16.352;2024-01-15T07:33:26;98346.78;;;21.56;38.26
43312;BME280;30041;48.300;16.352;2024-01-15T07:35:59;98361.38;;;21.55;38.17
43312;BME280;30041;48.300;16.352;2024-01-15T07:38:25;98351.38;;;21.56;38.16
43312;BME280;30041;48.300;16.352;2024-01-15T07:40:50;98357.31;;;21.58;38.08
43312;BME280;30041;48.300;16.352;2024-01-15T07:43:16;98361.91;;;21.58;38.49
43312;BME280;30041;48.300;16.352;2024-01-15T07:45:42;98365.41;;;21.58;38.35
43312;BME280;30041;48.300;16.352;2024-01-15T07:48:10;98366.50;;;21.62;38.41
43312;BME280;30041;48.300;16.352;2024-01-15T07:50:35;98369.44;;;21.61;38.38
43312;BME280;30041;48.300;16.352;2024-01-15T07:53:04;98367.53;;;21.61;38.60
43312;BME280;30041;48.300;16.352;2024-01-15T07:55:29;98377.00;;;21.64;38.00
43312;BME280;30041;48.300;16.352;2024-01-15T07:57:55;98370.78;;;21.63;38.30
43312;BME280;30041;48.300;16.352;2024-01-15T08:00:21;98374.56;;;21.62;38.44
43312;BME280;30041;48.300;16.352;2024-01-15T08:02:47;98365.41;;;21.63;38.41
43312;BME280;30041;48.300;16.352;2024-01-15T08:05:16;98368.09;;;21.63;38.20
43312;BME280;30041;48.300;16.352;2024-01-15T08:07:42;98379.72;;;21.64;38.50
43312;BME280;30041;48.300;16.352;2024-01-15T08:10:08;98373.47;;;21.63;38.26
43312;BME280;30041;48.300;16.352;2024-01-15T08:12:34;98381.56;;;21.63;38.39
43312;BME280;30041;48.300;16.352;2024-01-15T08:15:00;98362.69;;;21.63;38.25
43312;BME280;30041;48.300;16.352;2024-01-15T08:17:31;98370.53;;;21.65;38.30
43312;BME280;30041;48.300;16.352;2024-01-15T08:19:59;98363.25;;;21.65;38.35
43312;BME280;30041;48.300;16.352;2024-01-15T08:22:34;98368.09;;;21.63;38.41
43312;BME280;30041;48.300;16.352;2024-01-15T08:25:00;98367.28;;;21.63;38.42
43312;BME280;30041;48.300;16.352;2024-01-15T08:27:26;98363.53;;;21.64;38.52
43312;BME280;30041;48.300;16.352;2024-01-15T08:29:54;98364.34;;;21.64;38.37
43312;BME280;30041;48.300;16.352;2024-01-15T08:32:20;98375.91;;;21.65;38.49
43312;BME280;30041;48.300;16.352;2024-01-15T08:34:48;98375.13;;;21.64;38.34
43312;BME280;30041;48.300;16.352;2024-01-15T08:37:14;98370.53;;;21.65;38.54
43312;BME280;30041;48.300;16.352;2024-01-15T08:39:40;98376.19;;;21.63;38.37
43312;BME280;30041;48.300;16.352;2024-01-15T08:42:06;98374.56;;;21.62;38.38
43312;BME280;30041;48.300;16.352;2024-01-15T08:44:31;98359.19;;;21.63;38.59
43312;BME280;30041;48.300;16.352;2024-01-15T08:46:57;98352.47;;;21.65;38.43
43312;BME280;30041;48.300;16.352;2024-01-15T08:49:23;98349.75;;;21.65;38.51
43312;BME280;30041;48.300;16.352;2024-01-15T08:51:49;98356.78;;;21.66;38.25
43312;BME280;30041;48.300;16.352;2024-01-15T08:54:15;98346.00;;;21.66;38.35
43312;BME280;30041;48.300;16.352;2024-01-15T08:56:40;98354.63;;;21.68;38.25
43312;BME280;30041;48.300;16.352;2024-01-15T08:59:06;98354.63;;;21.68;38.31
43312;BME280;30041;48.300;16.352;2024-01-15T09:01:35;98355.97;;;21.66;38.31
43312;BME280;30041;48.300;16.352;2024-01-15T09:04:01;98370.81;;;21.68;38.27
43312;BME280;30041;48.300;16.352;2024-01-15T09:06:26;98365.41;;;21.68;38.17
43312;BME280;30041;48.300;16.352;2024-01-15T09:08:52;98359.19;;;21.68;38.35
43312;BME280;30041;48.300;16.352;2024-01-15T09:11:18;98375.38;;;21.68;38.25
43312;BME280;30041;48.300;16.352;2024-01-15T09:13:47;98365.41;;;21.68;38.10
43312;BME280;30041;48.300;16.352;2024-01-15T09:16:12;98364.88;;;21.71;38.35
43312;BME280;30041;48.300;16.352;2024-01-15T09:18:38;98367.31;;;21.73;38.29
43312;BME280;30041;48.300;16.352;2024-01-15T09:21:06;98362.44;;;21.70;38.10
43312;BME280;30041;48.300;16.352;2024-01-15T09:23:32;98356.78;;;21.71;38.34
43312;BME280;30041;48.300;16.352;2024-01-15T09:25:58;98349.50;;;21.72;38.36
43312;BME280;30041;48.300;16.352;2024-01-15T09:28:28;98351.38;;;21.71;38.29
43312;BME280;30041;48.300;16.352;2024-01-15T09:30:54;98347.09;;;21.70;38.44
43312;BME280;30041;48.300;16.352;2024-01-15T09:33:22;98354.88;;;21.72;38.20
43312;BME280;30041;48.300;16.352;2024-01-15T09:35:48;98359.47;;;21.71;38.37
43312;BME280;30041;48.300;16.352;2024-01-15T09:38:14;98363.25;;;21.70;38.39
43312;BME280;30041;48.300;16.352;2024-01-15T09:40:43;98357.59;;;21.72;38.40
43312;BME280;30041;48.300;16.352;2024-01-15T09:43:08;98359.22;;;21.73;38.29
43312;BME280;30041;48.300;16.352;2024-01-15T09:45:35;98358.94;;;21.74;38.40
43312;BME280;30041;48.300;16.352;2024-01-15T09:48:05;98360.81;;;21.74;38.27
43312;BME280;30041;48.300;16.352;2024-01-15T09:50:33;98356.53;;;21.73;38.28
43312;BME280;30041;48.300;16.352;2024-01-15T09:53:02;98354.88;;;21.72;38.22
43312;BME280;30041;48.300;16.352;2024-01-15T09:55:29;98356.53;;;21.73;38.28
43312;BME280;30041;48.300;16.352;2024-01-15T09:57:55;98350.31;;;21.72;38.14
43312;BME280;30041;48.300;16.352;2024-01-15T10:00:22;98355.72;;;21.72;38.11
43312;BME280;30041;48.300;16.352;2024-01-15T10:02:48;98359.72;;;21.70;38.15
43312;BME280;30041;48.300;16.352;2024-01-15T10:05:14;98352.19;;;21.72;38.23
43312;BME280;30041;48.300;16.352;2024-01-15T10:07:45;98332.50;;;21.71;38.30
43312;BME280;30041;48.300;16.352;2024-01-15T10:10:11;98336.31;;;21.70;38.09
43312;BME280;30041;48.300;16.352;2024-01-15T10:12:40;98320.66;;;21.72;38.16
43312;BME280;30041;48.300;16.352;2024-01-15T10:15:09;98309.03;;;21.72;37.94
43312;BME280;30041;48.300;16.352;2024-01-15T10:17:37;98310.69;;;21.73;38.13
43312;BME280;30041;48.300;16.352;2024-01-15T10:20:10;98308.78;;;21.73;38.05
43312;BME280;30041;48.300;16.352;2024-01-15T10:22:44;98302.28;;;21.74;38.18
43312;BME280;30041;48.300;16.352;2024-01-15T10:25:18;98297.72;;;21.75;38.21
43312;BME280;30041;48.300;16.352;2024-01-15T10:27:44;98290.44;;;21.75;38.11
43312;BME280;30041;48.300;16.352;2024-01-15T10:30:10;98288.28;;;21.77;38.09
43312;BME280;30041;48.300;16.352;2024-01-15T10:32:36;98284.50;;;21.79;37.94
43312;BME280;30041;48.300;16.352;2024-01-15T10:35:04;98275.34;;;21.80;37.77
43312;BME280;30041;48.300;16.352;2024-01-15T10:37:35;98265.34;;;21.80;37.88
43312;BME280;30041;48.300;16.352;2024-01-15T10:40:02;98265.34;;;21.80;37.95
43312;BME280;30041;48.300;16.352;2024-01-15T10:42:28;98258.88;;;21.81;37.97
43312;BME280;30041;48.300;16.352;2024-01-15T10:44:57;98266.44;;;21.84;37.74
43312;BME280;30041;48.300;16.352;2024-01-15T10:47:23;98258.34;;;21.84;37.92
43312;BME280;30041;48.300;16.352;2024-01-15T10:49:49;98276.13;;;21.85;37.87
43312;BME280;30041;48.300;16.352;2024-01-15T10:52:15;98267.22;;;21.85;37.78
43312;BME280;30041;48.300;16.352;2024-01-15T10:54:45;98269.94;;;21.85;38.03
43312;BME280;30041;48.300;16.352;2024-01-15T10:57:15;98269.94;;;21.85;37.94
43312;BME280;30041;48.300;16.352;2024-01-15T10:59:44;98268.88;;;21.86;37.87
43312;BME280;30041;48.300;16.352;2024-01-15T11:02:10;98272.38;;;21.86;37.72
43312;BME280;30041;48.300;16.352;2024-01-15T11:04:52;98268.31;;;21.84;37.99
43312;BME280;30041;48.300;16.352;2024-01-15T11:07:22;98272.63;;;21.85;37.92
43312;BME280;30041;48.300;16.352;2024-01-15T11:09:50;98274.25;;;21.86;37.77
43312;BME280;30041;48.300;16.352;2024-01-15T11:12:16;98274.53;;;21.84;37.96
43312;BME280;30041;48.300;16.352;2024-01-15T11:14:46;98271.81;;;21.84;37.85
43312;BME280;30041;48.300;16.352;2024-01-15T11:17:13;98274.53;;;21.84;37.74
43312;BME280;30041;48.300;16.352;2024-01-15T11:24:57;98280.19;;;21.83;37.77
43312;BME280;30041;48.300;16.352;2024-01-15T11:27:44;98280.97;;;21.83;37.94
43312;BME280;30041;48.300;16.352;2024-01-15T11:30:11;98273.44;;;21.85;37.79
43312;BME280;30041;48.300;16.352;2024-01-15T11:32:38;98287.22;;;21.84;37.76
43312;BME280;30041;48.300;16.352;2024-01-15T11:35:04;98287.22;;;21.84;37.87
43312;BME280;30041;48.300;16.352;2024-01-15T11:40:22;98276.41;;;21.84;37.89
43312;BME280;30041;48.300;16.352;2024-01-15T11:42:49;98269.13;;;21.84;37.87
43312;BME280;30041;48.300;16.352;2024-01-15T11:45:21;98278.03;;;21.85;37.71
43312;BME280;30041;48.300;16.352;2024-01-15T11:48:23;98283.69;;;21.83;37.79
43312;BME280;30041;48.300;16.352;2024-01-15T11:50:43;98274.78;;;21.83;37.70
43312;BME280;30041;48.300;16.352;2024-01-15T11:53:16;98273.44;;;21.85;37.73
43312;BME280;30041;48.300;16.352;2024-01-15T11:55:44;98264.53;;;21.85;37.63
43312;BME280;30041;48.300;16.352;2024-01-15T11:58:11;98254.28;;;21.87;37.44
43312;BME280;30041;48.300;16.352;2024-01-15T12:00:44;98248.09;;;21.86;37.70
43312;BME280;30041;48.300;16.352;2024-01-15T12:03:13;98237.03;;;21.83;37.88
43312;BME280;30041;48.300;16.352;2024-01-15T12:05:39;98228.13;;;21.82;37.62
43312;BME280;30041;48.300;16.352;2024-01-15T12:08:08;98228.94;;;21.83;37.97
43312;BME280;30041;48.300;16.352;2024-01-15T12:10:34;98244.84;;;21.84;37.82
43312;BME280;30041;48.300;16.352;2024-01-15T12:13:03;98236.50;;;21.86;37.71
43312;BME280;30041;48.300;16.352;2024-01-15T12:15:30;98233.81;;;21.86;37.60
43312;BME280;30041;48.300;16.352;2024-01-15T12:17:57;98242.69;;;21.86;37.57
43312;BME280;30041;48.300;16.352;2024-01-15T12:20:24;98253.19;;;21.88;37.52
43312;BME280;30041;48.300;16.352;2024-01-15T12:22:50;98248.34;;;21.85;37.78
43312;BME280;30041;48.300;16.352;2024-01-15T12:25:16;98247.00;;;21.87;37.73
43312;BME280;30041;48.300;16.352;2024-01-15T12:27:45;98248.09;;;21.86;37.38
43312;BME280;30041;48.300;16.352;2024-01-15T12:30:12;98244.59;;;21.86;37.56
43312;BME280;30041;48.300;16.352;2024-01-15T12:32:40;98240.81;;;21.87;37.64
43312;BME280;30041;48.300;16.352;2024-01-15T12:35:06;98231.09;;;21.86;37.45
43312;BME280;30041;48.300;16.352;2024-01-15T12:37:39;98238.66;;;21.84;37.64
43312;BME280;30041;48.300;16.352;2024-01-15T12:40:09;98245.66;;;21.85;37.59
43312;BME280;30041;48.300;16.352;2024-01-15T12:42:35;98235.41;;;21.87;37.44
43312;BME280;30041;48.300;16.352;2024-01-15T12:45:05;98223.28;;;21.84;37.61
43312;BME280;30041;48.300;16.352;2024-01-15T12:47:31;98229.47;;;21.85;37.60
43312;BME280;30041;48.300;16.352;2024-01-15T12:50:00;98223.28;;;21.84;37.69
43312;BME280;30041;48.300;16.352;2024-01-15T12:52:29;98218.41;;;21.86;37.63
43312;BME280;30041;48.300;16.352;2024-01-15T12:54:55;98218.41;;;21.86;37.49
43312;BME280;30041;48.300;16.352;2024-01-15T12:57:22;98220.81;;;21.88;37.53
43312;BME280;30041;48.300;16.352;2024-01-15T12:59:49;98216.53;;;21.87;37.42